createdAt,value
2022-08-14T00:02:24.417Z,92.10
2022-08-14T00:04:54.050Z,92.60
2022-08-14T00:07:21.136Z,93.10
2022-08-14T00:09:56.048Z,93.60
2022-08-14T00:12:39.352Z,93.90
2022-08-14T00:15:16.089Z,94.50
2022-08-14T00:17:47.241Z,94.90
2022-08-14T00:20:23.949Z,95.40
2022-08-14T00:22:57.364Z,95.90
2022-08-14T00:25:30.724Z,96.40
2022-08-14T00:28:15.517Z,96.40
2022-08-14T00:30:46.499Z,96.80
2022-08-14T00:33:16.496Z,96.80
2022-08-14T00:36:35.992Z,96.90
2022-08-14T00:38:34.969Z,97.20
2022-08-14T00:41:07.239Z,97.40
2022-08-14T00:43:43.244Z,97.70
2022-08-14T00:46:23.416Z,98.20
2022-08-14T00:49:00.127Z,98.50
2022-08-14T00:51:34.716Z,98.80
2022-08-14T00:54:11.183Z,99.30
2022-08-14T00:56:50.127Z,99.60
2022-08-14T00:59:17.320Z,99.70
2022-08-14T01:01:46.035Z,99.90
2022-08-14T01:04:38.169Z,99.90
2022-08-14T01:07:04.872Z,99.90
2022-08-14T01:09:37.741Z,99.90
2022-08-14T01:12:07.694Z,99.80
2022-08-14T01:14:35.792Z,99.60
2022-08-14T01:17:03.582Z,99.90
2022-08-14T01:19:49.809Z,99.90
2022-08-14T01:22:20.194Z,99.90
2022-08-14T01:24:48.549Z,99.90
2022-08-14T01:27:19.759Z,99.90
2022-08-14T01:30:03.844Z,99.90
2022-08-14T01:32:35.310Z,99.90
2022-08-14T01:35:17.750Z,99.90
2022-08-14T01:37:56.987Z,99.90
2022-08-14T01:40:36.780Z,99.90
2022-08-14T01:43:15.947Z,99.90
2022-08-14T01:46:05.712Z,99.90
2022-08-14T01:48:37.037Z,99.90
2022-08-14T01:51:19.104Z,99.90
2022-08-14T01:53:54.892Z,99.90
2022-08-14T01:56:39.285Z,99.90
2022-08-14T01:59:22.297Z,99.90
2022-08-14T02:01:57.906Z,99.90
2022-08-14T02:04:54.534Z,99.90
2022-08-14T02:07:44.948Z,99.90
2022-08-14T02:10:13.226Z,99.90
2022-08-14T02:12:43.291Z,99.90
2022-08-14T02:15:11.558Z,99.90
2022-08-14T02:17:39.053Z,99.90
2022-08-14T02:20:08.672Z,99.90
2022-08-14T02:22:36.062Z,99.90
2022-08-14T02:25:16.795Z,99.90
2022-08-14T02:28:25.727Z,99.90
2022-08-14T02:30:33.955Z,99.90
2022-08-14T02:33:07.386Z,99.90
2022-08-14T02:35:40.718Z,99.90
2022-08-14T02:38:11.872Z,99.90
2022-08-14T02:40:55.259Z,99.90
2022-08-14T02:43:22.773Z,99.90
2022-08-14T02:45:50.508Z,99.90
2022-08-14T02:49:02.919Z,99.90
2022-08-14T02:51:12.299Z,99.90
2022-08-14T02:53:45.602Z,99.90
2022-08-14T02:56:30.582Z,99.90
2022-08-14T02:59:06.761Z,99.90
2022-08-14T03:01:50.508Z,99.90
2022-08-14T03:04:20.649Z,99.90
2022-08-14T03:06:57.963Z,99.90
2022-08-14T03:09:41.950Z,99.90
2022-08-14T03:12:31.446Z,99.90
2022-08-14T03:15:13.960Z,99.90
2022-08-14T03:17:57.290Z,99.90
2022-08-14T03:20:29.968Z,99.90
2022-08-14T03:23:03.294Z,99.90
2022-08-14T03:25:33.558Z,99.90
2022-08-14T03:28:14.568Z,99.90
2022-08-14T03:31:01.630Z,99.90
2022-08-14T03:33:38.058Z,99.90
2022-08-14T03:37:38.519Z,99.90
2022-08-14T03:39:14.138Z,99.90
2022-08-14T03:41:49.945Z,99.90
2022-08-14T03:45:26.875Z,99.90
2022-08-14T03:47:05.258Z,99.90
2022-08-14T03:49:32.313Z,99.90
2022-08-14T03:52:07.683Z,99.90
2022-08-14T03:54:52.564Z,99.90
2022-08-14T03:57:22.774Z,99.90
2022-08-14T03:59:50.832Z,99.90
2022-08-14T04:02:32.296Z,99.90
2022-08-14T04:05:08.143Z,99.90
2022-08-14T04:07:49.489Z,99.90
2022-08-14T04:10:31.934Z,99.90
2022-08-14T04:13:06.140Z,99.90
2022-08-14T04:15:55.930Z,99.90
2022-08-14T04:18:21.601Z,99.90
2022-08-14T04:20:54.446Z,99.90
2022-08-14T04:23:23.675Z,99.90
2022-08-14T04:25:56.447Z,99.90
2022-08-14T04:29:07.370Z,99.90
2022-08-14T04:31:12.153Z,99.90
2022-08-14T04:33:43.000Z,99.90
2022-08-14T04:36:16.082Z,99.90
2022-08-14T04:39:03.936Z,99.90
2022-08-14T04:41:54.280Z,99.90
2022-08-14T04:44:26.511Z,99.90
2022-08-14T04:47:23.676Z,99.90
2022-08-14T04:49:57.113Z,99.90
2022-08-14T04:52:25.597Z,99.90
2022-08-14T04:54:54.696Z,99.90
2022-08-14T04:57:22.862Z,99.90
2022-08-14T04:59:52.828Z,99.90
2022-08-14T05:02:21.627Z,99.90
2022-08-14T05:04:57.420Z,99.90
2022-08-14T05:07:46.565Z,99.90
2022-08-14T05:10:16.452Z,99.90
2022-08-14T05:13:13.509Z,99.90
2022-08-14T05:15:39.397Z,99.90
2022-08-14T05:18:17.767Z,99.90
2022-08-14T05:21:59.585Z,99.90
2022-08-14T05:23:52.085Z,99.90
2022-08-14T05:26:21.770Z,99.90
2022-08-14T05:28:48.778Z,99.90
2022-08-14T05:31:20.336Z,99.90
2022-08-14T05:33:56.947Z,99.90
2022-08-14T05:36:25.276Z,99.90
2022-08-14T05:38:54.290Z,99.90
2022-08-14T05:41:22.451Z,99.90
2022-08-14T05:43:51.128Z,99.90
2022-08-14T05:46:23.266Z,99.90
2022-08-14T05:48:57.358Z,94.70
2022-08-14T05:51:25.828Z,82.90
2022-08-14T05:54:01.611Z,72.30
2022-08-14T05:56:40.178Z,65.80
2022-08-14T05:59:07.583Z,61.00
2022-08-14T06:01:35.375Z,58.60
2022-08-14T06:04:05.073Z,57.30
2022-08-14T06:06:36.619Z,55.40
2022-08-14T06:09:06.007Z,55.00
2022-08-14T06:11:37.479Z,53.90
2022-08-14T06:14:12.374Z,52.70
2022-08-14T06:16:48.452Z,51.90
2022-08-14T06:19:18.218Z,51.60
2022-08-14T06:21:45.460Z,50.40
2022-08-14T06:24:18.597Z,49.60
2022-08-14T06:26:54.346Z,49.10
2022-08-14T06:29:32.080Z,49.10
2022-08-14T06:32:37.450Z,48.60
2022-08-14T06:35:10.705Z,48.10
2022-08-14T06:37:53.128Z,48.00
2022-08-14T06:40:28.612Z,48.10
2022-08-14T06:43:06.975Z,48.10
2022-08-14T06:45:37.165Z,47.80
2022-08-14T06:48:17.276Z,47.80
2022-08-14T06:50:46.075Z,47.70
2022-08-14T06:53:14.822Z,47.80
2022-08-14T06:55:58.544Z,48.00
2022-08-14T06:58:31.393Z,47.50
2022-08-14T07:01:24.985Z,47.40
2022-08-14T07:04:23.137Z,46.30
2022-08-14T07:06:59.020Z,46.80
2022-08-14T07:09:43.883Z,48.10
2022-08-14T07:12:54.161Z,48.50
2022-08-14T07:15:03.783Z,48.90
2022-08-14T07:17:32.179Z,48.30
2022-08-14T07:20:01.477Z,47.70
2022-08-14T07:22:33.025Z,47.90
2022-08-14T07:25:16.198Z,49.20
2022-08-14T07:27:43.425Z,48.70
2022-08-14T07:30:34.315Z,48.00
2022-08-14T07:32:58.298Z,48.30
2022-08-14T07:35:25.272Z,47.40
2022-08-14T07:38:06.449Z,47.80
2022-08-14T07:40:35.835Z,48.90
2022-08-14T07:43:14.129Z,49.60
2022-08-14T07:45:42.326Z,49.70
2022-08-14T07:48:14.830Z,48.40
2022-08-14T07:50:42.520Z,47.60
2022-08-14T07:53:14.367Z,48.60
2022-08-14T07:55:43.292Z,49.20
2022-08-14T07:58:30.268Z,50.90
2022-08-14T08:00:58.155Z,51.70
2022-08-14T08:03:29.485Z,52.30
2022-08-14T08:05:58.235Z,52.50
2022-08-14T08:08:27.780Z,54.00
2022-08-14T08:11:01.794Z,54.10
2022-08-14T08:13:33.167Z,55.30
2022-08-14T08:16:02.178Z,54.80
2022-08-14T08:18:30.947Z,55.20
2022-08-14T08:21:00.167Z,54.90
2022-08-14T08:23:31.039Z,54.60
2022-08-14T08:26:08.556Z,54.40
2022-08-14T08:28:36.007Z,54.50
2022-08-14T08:31:05.937Z,53.50
2022-08-14T08:33:40.165Z,52.70
2022-08-14T08:36:12.625Z,52.90
2022-08-14T08:39:16.597Z,53.50
2022-08-14T08:42:05.529Z,52.10
2022-08-14T08:44:34.360Z,51.70
2022-08-14T08:47:06.797Z,51.10
2022-08-14T08:49:48.519Z,49.90
2022-08-14T08:52:30.962Z,52.20
2022-08-14T08:54:59.272Z,52.20
2022-08-14T08:57:36.019Z,50.30
2022-08-14T09:00:24.565Z,50.50
2022-08-14T09:02:54.679Z,49.70
2022-08-14T09:05:23.504Z,51.50
2022-08-14T09:07:50.763Z,49.30
2022-08-14T09:10:23.776Z,50.50
2022-08-14T09:12:56.331Z,49.50
2022-08-14T09:15:24.194Z,49.70
2022-08-14T09:17:52.899Z,49.30
2022-08-14T09:20:26.365Z,49.30
2022-08-14T09:22:58.132Z,49.20
2022-08-14T09:26:01.195Z,48.00
2022-08-14T09:28:14.215Z,48.40
2022-08-14T09:30:45.607Z,48.20
2022-08-14T09:33:31.643Z,47.60
2022-08-14T09:36:38.157Z,47.70
2022-08-14T09:39:53.795Z,48.00
2022-08-14T09:42:33.462Z,48.30
2022-08-14T09:45:53.328Z,48.50
2022-08-14T09:48:30.076Z,48.50
2022-08-14T09:54:18.502Z,49.60
2022-08-14T09:56:31.042Z,50.30
2022-08-14T09:59:10.809Z,51.00
2022-08-14T10:01:39.603Z,50.80
2022-08-14T10:04:34.799Z,51.40
2022-08-14T10:07:08.533Z,50.70
2022-08-14T10:09:59.542Z,50.70
2022-08-14T10:12:47.754Z,49.90
2022-08-14T10:15:25.372Z,49.80
2022-08-14T10:18:18.506Z,50.60
2022-08-14T10:21:01.641Z,49.60
2022-08-14T10:23:40.425Z,49.70
2022-08-14T10:26:09.152Z,49.50
2022-08-14T10:29:17.785Z,49.80
2022-08-14T10:31:43.237Z,50.00
2022-08-14T10:34:19.122Z,49.60
2022-08-14T10:36:50.280Z,48.90
2022-08-14T10:39:30.301Z,48.00
2022-08-14T10:42:18.218Z,48.10
2022-08-14T10:44:52.618Z,48.40
2022-08-14T10:47:41.041Z,49.00
2022-08-14T10:50:12.227Z,48.90
2022-08-14T10:52:43.381Z,48.80
2022-08-14T10:55:16.414Z,46.60
2022-08-14T10:57:54.789Z,47.20
2022-08-14T11:00:30.151Z,47.10
2022-08-14T11:03:11.053Z,48.10
2022-08-14T11:05:55.595Z,49.90
2022-08-14T11:08:34.012Z,50.30
2022-08-14T11:11:05.596Z,50.10
2022-08-14T11:13:33.737Z,49.70
2022-08-14T11:16:02.611Z,49.70
2022-08-14T11:18:36.232Z,50.40
2022-08-14T11:21:09.886Z,51.20
2022-08-14T11:23:41.195Z,50.00
2022-08-14T11:26:14.429Z,48.20
2022-08-14T11:28:46.276Z,48.50
2022-08-14T11:31:18.218Z,48.10
2022-08-14T11:33:49.689Z,48.60
2022-08-14T11:36:17.811Z,48.00
2022-08-14T11:38:46.696Z,49.30
2022-08-14T11:41:17.252Z,47.50
2022-08-14T11:43:58.184Z,47.20
2022-08-14T11:46:30.273Z,47.10
2022-08-14T11:49:05.272Z,46.30
2022-08-14T11:51:35.943Z,46.60
2022-08-14T11:54:09.406Z,45.70
2022-08-14T11:56:45.826Z,46.00
2022-08-14T11:59:18.759Z,47.10
2022-08-14T12:01:46.416Z,47.50
2022-08-14T12:04:31.582Z,47.60
2022-08-14T12:07:01.749Z,47.10
2022-08-14T12:09:37.399Z,46.40
2022-08-14T12:12:35.118Z,47.00
2022-08-14T12:15:04.561Z,46.40
2022-08-14T12:17:47.350Z,45.80
2022-08-14T12:20:16.321Z,45.00
2022-08-14T12:23:05.243Z,44.50
2022-08-14T12:25:34.557Z,44.60
2022-08-14T12:28:10.344Z,42.60
2022-08-14T12:30:56.610Z,43.60
2022-08-14T12:33:33.963Z,43.90
2022-08-14T12:36:06.232Z,43.70
2022-08-14T12:38:44.896Z,43.60
2022-08-14T12:41:21.087Z,44.10
2022-08-14T12:44:01.989Z,44.60
2022-08-14T12:46:37.943Z,43.70
2022-08-14T12:49:11.778Z,45.50
2022-08-14T12:51:55.354Z,46.20
2022-08-14T12:54:28.455Z,45.80
2022-08-14T12:57:19.915Z,44.60
2022-08-14T12:59:49.587Z,44.00
2022-08-14T13:02:26.963Z,43.00
2022-08-14T13:04:56.611Z,42.70
2022-08-14T13:07:32.540Z,41.20
2022-08-14T13:10:45.873Z,41.90
2022-08-14T13:13:12.056Z,43.00
2022-08-14T13:15:40.108Z,45.00
2022-08-14T13:18:11.414Z,45.50
2022-08-14T13:20:48.046Z,45.80
2022-08-14T13:23:19.347Z,45.80
2022-08-14T13:25:58.977Z,45.50
2022-08-14T13:28:33.022Z,46.20
2022-08-14T13:31:08.966Z,46.90
2022-08-14T13:33:40.482Z,47.00
2022-08-14T13:36:18.226Z,46.10
2022-08-14T13:38:53.737Z,46.10
2022-08-14T13:41:28.170Z,46.10
2022-08-14T13:44:04.318Z,44.90
2022-08-14T13:46:31.465Z,44.50
2022-08-14T13:48:59.737Z,44.30
2022-08-14T13:51:30.451Z,45.00
2022-08-14T13:54:10.320Z,45.20
2022-08-14T13:56:40.610Z,45.90
2022-08-14T13:59:08.899Z,46.30
2022-08-14T14:01:43.343Z,46.90
2022-08-14T14:04:19.512Z,46.80
2022-08-14T14:06:52.345Z,46.80
2022-08-14T14:09:32.460Z,45.80
2022-08-14T14:12:08.129Z,44.20
2022-08-14T14:14:55.871Z,44.90
2022-08-14T14:17:25.491Z,44.10
2022-08-14T14:19:57.880Z,43.80
2022-08-14T14:23:00.796Z,43.40
2022-08-14T14:25:19.545Z,41.70
2022-08-14T14:27:53.661Z,42.20
2022-08-14T14:30:52.477Z,42.90
2022-08-14T14:33:44.059Z,43.50
2022-08-14T14:36:04.988Z,44.70
2022-08-14T14:38:33.875Z,45.40
2022-08-14T14:41:03.728Z,45.90
2022-08-14T14:43:35.556Z,46.10
2022-08-14T14:46:08.613Z,46.40
2022-08-14T14:48:54.609Z,46.60
2022-08-14T14:51:22.307Z,47.10
2022-08-14T14:53:49.938Z,47.20
2022-08-14T14:56:50.075Z,46.20
2022-08-14T14:59:05.137Z,45.50
2022-08-14T15:01:35.600Z,44.70
2022-08-14T15:04:07.805Z,44.00
2022-08-14T15:06:35.961Z,44.80
2022-08-14T15:09:04.849Z,44.40
2022-08-14T15:11:35.907Z,45.00
2022-08-14T15:14:53.953Z,44.80
2022-08-14T15:16:52.594Z,45.00
2022-08-14T15:19:22.193Z,43.80
2022-08-14T15:21:50.729Z,44.40
2022-08-14T15:24:24.452Z,44.90
2022-08-14T15:26:57.231Z,44.90
2022-08-14T15:29:26.110Z,45.40
2022-08-14T15:31:54.129Z,45.40
2022-08-14T15:34:45.443Z,45.20
2022-08-14T15:37:13.141Z,44.80
2022-08-14T15:39:45.397Z,44.40
2022-08-14T15:42:16.237Z,44.50
2022-08-14T15:44:56.932Z,44.60
2022-08-14T15:47:29.014Z,44.70
2022-08-14T15:49:59.622Z,44.70
2022-08-14T15:52:32.913Z,44.70
2022-08-14T15:55:07.931Z,45.40
2022-08-14T15:57:36.483Z,45.50
2022-08-14T16:00:40.307Z,45.90
2022-08-14T16:03:13.997Z,45.90
2022-08-14T16:05:43.687Z,45.60
2022-08-14T16:08:29.235Z,44.50
2022-08-14T16:11:00.620Z,45.00
2022-08-14T16:13:41.461Z,44.70
2022-08-14T16:16:47.884Z,44.40
2022-08-14T16:19:10.060Z,45.80
2022-08-14T16:22:03.560Z,45.20
2022-08-14T16:25:00.286Z,45.90
2022-08-14T16:27:39.079Z,45.90
2022-08-14T16:30:24.530Z,45.70
2022-08-14T16:32:59.155Z,45.60
2022-08-14T16:35:41.813Z,46.30
2022-08-14T16:38:35.808Z,46.50
2022-08-14T16:41:18.208Z,47.30
2022-08-14T16:43:52.322Z,47.80
2022-08-14T16:46:22.273Z,47.60
2022-08-14T16:48:55.087Z,47.80
2022-08-14T16:51:24.652Z,48.00
2022-08-14T16:53:52.028Z,48.10
2022-08-14T16:56:24.195Z,48.30
2022-08-14T16:59:13.420Z,48.20
2022-08-14T17:01:44.281Z,48.40
2022-08-14T17:04:24.952Z,48.60
2022-08-14T17:06:58.496Z,48.40
2022-08-14T17:09:27.767Z,48.50
2022-08-14T17:12:08.213Z,48.70
2022-08-14T17:14:50.760Z,49.40
2022-08-14T17:17:21.520Z,49.50
2022-08-14T17:19:58.002Z,49.70
2022-08-14T17:22:47.700Z,49.80
2022-08-14T17:25:17.347Z,50.10
2022-08-14T17:28:50.201Z,50.10
2022-08-14T17:31:06.575Z,50.50
2022-08-14T17:33:40.993Z,51.00
2022-08-14T17:36:21.054Z,51.30
2022-08-14T17:39:11.769Z,51.10
2022-08-14T17:41:43.599Z,51.60
2022-08-14T17:44:34.027Z,51.90
2022-08-14T17:47:10.342Z,52.10
2022-08-14T17:49:51.847Z,52.50
2022-08-14T17:52:34.643Z,53.30
2022-08-14T17:55:12.488Z,53.10
2022-08-14T17:57:41.433Z,53.50
2022-08-14T18:00:17.239Z,53.90
2022-08-14T18:02:50.942Z,54.00
2022-08-14T18:05:23.774Z,53.80
2022-08-14T18:08:33.775Z,54.20
2022-08-14T18:10:57.251Z,55.00
2022-08-14T18:13:51.664Z,56.00
2022-08-14T18:16:20.581Z,56.20
2022-08-14T18:18:51.674Z,55.70
2022-08-14T18:21:40.213Z,56.00
2022-08-14T18:24:20.123Z,55.80
2022-08-14T18:27:09.391Z,55.80
2022-08-14T18:29:55.918Z,56.30
2022-08-14T18:32:32.104Z,56.60
2022-08-14T18:35:13.322Z,57.30
2022-08-14T18:37:42.382Z,57.60
2022-08-14T18:40:33.495Z,58.50
2022-08-14T18:43:03.494Z,58.70
2022-08-14T18:45:33.516Z,59.30
2022-08-14T18:48:19.202Z,60.00
2022-08-14T18:50:55.762Z,60.50
2022-08-14T18:53:25.501Z,61.60
2022-08-14T18:56:09.317Z,62.40
2022-08-14T18:58:58.468Z,63.10
2022-08-14T19:01:30.204Z,63.70
2022-08-14T19:04:00.975Z,64.70
2022-08-14T19:06:44.727Z,64.80
2022-08-14T19:09:50.894Z,65.50
2022-08-14T19:12:53.018Z,65.80
2022-08-14T19:15:26.913Z,64.60
2022-08-14T19:18:14.228Z,65.10
2022-08-14T19:20:52.626Z,65.30
2022-08-14T19:23:42.604Z,65.30
2022-08-14T19:26:33.611Z,65.50
2022-08-14T19:29:38.167Z,65.00
2022-08-14T19:32:36.607Z,65.20
2022-08-14T19:35:17.315Z,65.40
2022-08-14T19:37:52.439Z,65.50
2022-08-14T19:40:42.879Z,66.00
2022-08-14T19:43:55.252Z,66.80
2022-08-14T19:46:37.490Z,67.10
2022-08-14T19:48:57.384Z,66.80
2022-08-14T19:51:25.184Z,65.80
2022-08-14T19:54:13.549Z,64.50
2022-08-14T19:56:45.129Z,64.80
2022-08-14T19:59:18.844Z,66.10
2022-08-14T20:01:52.987Z,66.50
2022-08-14T20:04:45.998Z,67.30
2022-08-14T20:08:00.757Z,67.40
2022-08-14T20:11:08.125Z,67.60
2022-08-14T20:13:29.404Z,69.30
2022-08-14T20:16:20.943Z,68.60
2022-08-14T20:18:49.341Z,68.70
2022-08-14T20:21:18.705Z,69.10
2022-08-14T20:23:47.972Z,69.10
2022-08-14T20:26:30.998Z,69.10
2022-08-14T20:29:05.334Z,69.80
2022-08-14T20:31:36.659Z,69.90
2022-08-14T20:34:19.347Z,70.60
2022-08-14T20:37:10.498Z,70.10
2022-08-14T20:39:43.550Z,70.70
2022-08-14T20:42:35.944Z,69.80
2022-08-14T20:45:24.713Z,68.50
2022-08-14T20:48:01.024Z,68.60
2022-08-14T20:50:30.389Z,68.80
2022-08-14T20:52:58.732Z,69.30
2022-08-14T20:55:29.559Z,70.40
2022-08-14T20:57:58.938Z,71.30
2022-08-14T21:00:52.505Z,72.10
2022-08-14T21:03:56.438Z,73.10
2022-08-14T21:07:23.209Z,74.00
2022-08-14T21:10:03.270Z,73.90
2022-08-14T21:12:33.477Z,74.80
2022-08-14T21:15:00.945Z,74.70
2022-08-14T21:17:29.695Z,72.80
2022-08-14T21:19:56.944Z,74.60
2022-08-14T21:22:25.541Z,75.50
2022-08-14T21:24:59.857Z,75.80
2022-08-14T21:27:37.372Z,76.00
2022-08-14T21:30:08.450Z,76.50
2022-08-14T21:32:47.052Z,75.90
2022-08-14T21:35:19.721Z,76.10
2022-08-14T21:37:50.710Z,76.50
2022-08-14T21:40:42.117Z,76.50
2022-08-14T21:43:17.156Z,76.20
2022-08-14T21:45:53.235Z,76.80
2022-08-14T21:48:21.942Z,77.10
2022-08-14T21:51:01.136Z,77.60
2022-08-14T21:53:34.262Z,78.20
2022-08-14T21:56:03.592Z,78.10
2022-08-14T21:58:52.745Z,77.90
2022-08-14T22:01:19.458Z,76.90
2022-08-14T22:03:54.530Z,77.70
2022-08-14T22:06:28.818Z,77.30
2022-08-14T22:09:02.293Z,77.80
2022-08-14T22:11:30.015Z,78.00
2022-08-14T22:14:25.826Z,78.10
2022-08-14T22:17:03.483Z,77.80
2022-08-14T22:19:55.009Z,78.10
2022-08-14T22:22:26.064Z,78.10
2022-08-14T22:25:00.189Z,77.80
2022-08-14T22:27:32.206Z,78.30
2022-08-14T22:30:00.293Z,78.70
2022-08-14T22:32:56.877Z,79.00
2022-08-14T22:35:17.026Z,79.10
2022-08-14T22:37:45.095Z,79.00
2022-08-14T22:40:51.045Z,79.10
2022-08-14T22:43:08.212Z,79.10
2022-08-14T22:45:37.665Z,79.70
2022-08-14T22:48:10.686Z,79.60
2022-08-14T22:50:48.895Z,79.80
2022-08-14T22:53:20.927Z,79.80
2022-08-14T22:55:52.035Z,79.90
2022-08-14T22:58:31.475Z,79.80
2022-08-14T23:01:03.887Z,79.60
2022-08-14T23:03:34.371Z,79.80
2022-08-14T23:07:03.212Z,80.00
2022-08-14T23:09:02.262Z,80.60
2022-08-14T23:11:39.483Z,81.20
2022-08-14T23:14:07.164Z,80.30
2022-08-14T23:16:39.948Z,80.60
2022-08-14T23:19:11.723Z,80.20
2022-08-14T23:21:46.595Z,80.10
2022-08-14T23:24:14.234Z,80.50
2022-08-14T23:26:48.675Z,80.70
2022-08-14T23:29:20.406Z,80.70
2022-08-14T23:31:49.129Z,80.30
2022-08-14T23:34:20.909Z,80.30
2022-08-14T23:36:54.192Z,80.30
2022-08-14T23:39:24.502Z,80.80
2022-08-14T23:41:53.763Z,80.80
2022-08-14T23:44:24.529Z,80.30
2022-08-14T23:46:57.019Z,80.30
2022-08-14T23:50:01.013Z,80.10
2022-08-14T23:53:05.941Z,80.00
2022-08-14T23:55:03.245Z,79.50
2022-08-14T23:57:30.896Z,80.50
2022-08-14T23:59:57.886Z,80.60
